EKVGEGPM

Guest
Details From EKVG - Vagar
To EGPM - Scatsta
Flight Number -
Tags generated
Created
Modified
Stats Distance 203 nm / 375 km
Max Altitude 21,900 ft / 6,675 m
Waypoints 3
Social Downloads 1
Likes 0
Share VATSIM

Download

Looking for another format? Having issues loading an existing format? Contact us
Advertisement - Login to hide

Notes

Basic altitude profile: - Ascent Rate: 2500ft/min - Ascent Speed: 250kts - Cruise Altitude: 35000ft - Cruise Speed: 420kts - Descent Rate: 1500ft/min - Descent Speed: 250kts Options: - Use NATs: yes - Use PACOTS: yes - Use low airways: yes - Use high airways: yes

Route

EKVG GONUT EGPM

ID Type Via Altitude Latitude Longitude Leg Dist Tot Dist Heading (true) Name
O EKVG APT - 0 ft / 0 m 62.06358˚ -7.27704˚ - 0 nm - Vagar
GONUT FIX - 21,900 ft / 6,675 m 61.00000˚ -4.58333˚ 100 nm 100 nm 128° / 131° -
O EGPM APT - 0 ft / 0 m 60.43265˚ -1.29611˚ 102 nm 202 nm 108° / 111° Scatsta

Altitude Profile

Advertisement - Login to hide

Weather


0- 5 10 15 20 25 30 35+ Temperature / ° C

Clouds and Precipitation
Forecast for 2017-12-12 00:00 UTC. Updated 10 minutes ago

Ground ~20,000 ft ~40,000 ft Winds

EKVG

Details ICAO EKVG (FAE)
Name Vagar
Region Denmark / Faroe Islands
Timezone Atlantic/Faroe (UTC+0.0)
Stats Elevation 280 ft / 85 m (AMSL)
Location 62.063584° -7.277044°
Runways 1
Magnetic Variation 5.386° W

METAR

EKVG 112320Z AUTO VRB01KT 9999NDV FEW017/// BKN026/// 02/01 Q1000 RMK FEW015/// FEW027/// SCT220/// WIND 850FT 31004KT

Decode

TAF

Not found

Departure Runways

ID Width Length Bearing (true) Bearing (mag) Surface Threshold Offset Overrun Length
13 98 ft / 30 m 4,088 ft / 1,246 m 117.92° 123.31° Asphalt 0 ft / 0 m 197 ft / 60 m
31 98 ft / 30 m 4,088 ft / 1,246 m 297.94° 303.33° Asphalt 0 ft / 0 m 197 ft / 60 m

EGPM

Details ICAO EGPM (SDZ)
Name Scatsta
Region United Kingdom
Timezone Europe/London (UTC+0.0)
Stats Elevation 81 ft / 25 m (AMSL)
Location 60.432651° -1.296108°
Runways 1
Magnetic Variation 2.144° W

METAR

EGPM 112320Z AUTO 09006KT 9999 SCT031/// 01/M01 Q0996

Decode

TAF

Not found

Destination Runways

ID Width Length Bearing (true) Bearing (mag) Surface Threshold Offset Overrun Length
06 102 ft / 31 m 4,442 ft / 1,354 m 55.29° 57.43° Asphalt 374 ft / 114 m 0 ft / 0 m
24 102 ft / 31 m 4,442 ft / 1,354 m 235.31° 237.45° Asphalt 308 ft / 94 m 0 ft / 0 m